createdAt,value
2022-10-24T00:01:15.301Z,100603.69
2022-10-24T00:06:37.236Z,100591.25
2022-10-24T00:11:59.189Z,100592.22
2022-10-24T00:17:21.044Z,100591.41
2022-10-24T00:22:43.004Z,100599.91
2022-10-24T00:28:05.174Z,100594.72
2022-10-24T00:33:27.317Z,100603.53
2022-10-24T00:38:50.778Z,100601.00
2022-10-24T00:44:21.069Z,100610.19
2022-10-24T00:49:45.890Z,100601.59
2022-10-24T00:55:08.587Z,100587.94
2022-10-24T01:00:33.562Z,100576.13
2022-10-24T01:06:04.351Z,100570.06
2022-10-24T01:11:48.002Z,100571.03
2022-10-24T01:17:25.322Z,100566.72
2022-10-24T01:22:49.844Z,100569.19
2022-10-24T01:28:16.048Z,100553.72
2022-10-24T01:33:46.018Z,100548.66
2022-10-24T01:39:14.821Z,100539.09
2022-10-24T01:44:44.424Z,100525.56
2022-10-24T01:50:10.328Z,100534.75
2022-10-24T01:55:32.983Z,100529.56
2022-10-24T02:01:00.419Z,100527.41
2022-10-24T02:06:28.363Z,100523.06
2022-10-24T02:11:52.961Z,100493.78
2022-10-24T02:17:15.633Z,100482.03
2022-10-24T02:22:51.675Z,100478.50
2022-10-24T02:28:18.362Z,100474.13
2022-10-24T02:33:41.150Z,100478.91
2022-10-24T02:39:07.389Z,100468.91
2022-10-24T02:44:29.898Z,100485.03
2022-10-24T02:49:51.994Z,100476.31
2022-10-24T02:55:13.968Z,100494.03
2022-10-24T03:00:35.896Z,100483.59
2022-10-24T03:05:57.787Z,100486.25
2022-10-24T03:11:19.697Z,100464.94
2022-10-24T03:16:41.894Z,100456.31
2022-10-24T03:22:03.843Z,100469.94
2022-10-24T03:27:25.699Z,100465.75
2022-10-24T03:32:47.919Z,100453.84
2022-10-24T03:38:09.890Z,100450.38
2022-10-24T03:43:31.838Z,100457.13
2022-10-24T03:48:53.713Z,100448.75
2022-10-24T03:54:15.630Z,100452.13
2022-10-24T03:59:37.991Z,100438.47
2022-10-24T04:04:59.798Z,100432.47
2022-10-24T04:10:22.219Z,100437.19
2022-10-24T04:15:44.051Z,100433.09
2022-10-24T04:21:06.499Z,100413.41
2022-10-24T04:26:28.619Z,100410.66
2022-10-24T04:31:50.554Z,100400.34
2022-10-24T04:37:12.384Z,100408.13
2022-10-24T04:42:34.248Z,100382.38
2022-10-24T04:47:56.064Z,100357.63
2022-10-24T04:53:17.953Z,100360.19
2022-10-24T04:58:39.817Z,100367.16
2022-10-24T05:09:28.691Z,100354.78
2022-10-24T05:14:50.518Z,100352.50
2022-10-24T05:20:12.528Z,100345.16
2022-10-24T05:25:34.400Z,100340.06
2022-10-24T05:30:56.508Z,100335.69
2022-10-24T05:36:18.342Z,100330.22
2022-10-24T05:41:44.681Z,100319.97
2022-10-24T05:47:08.932Z,100328.94
2022-10-24T05:52:30.740Z,100356.06
2022-10-24T05:57:52.618Z,100345.75
2022-10-24T06:03:14.496Z,100322.78
2022-10-24T06:08:37.681Z,100341.34
2022-10-24T06:13:59.536Z,100352.31
2022-10-24T06:19:21.366Z,100363.34
2022-10-24T06:24:43.207Z,100360.38
2022-10-24T06:30:06.392Z,100356.16
2022-10-24T06:35:28.267Z,100359.47
2022-10-24T06:40:50.103Z,100351.03
2022-10-24T06:46:14.941Z,100342.28
2022-10-24T06:51:36.762Z,100333.69
2022-10-24T06:56:58.582Z,100363.19
2022-10-24T07:02:20.911Z,100384.50
2022-10-24T07:07:43.765Z,100387.06
2022-10-24T07:13:05.832Z,100390.22
2022-10-24T07:18:27.849Z,100403.63
2022-10-24T07:23:51.193Z,100417.91
2022-10-24T07:29:13.042Z,100422.38
2022-10-24T07:34:34.892Z,100415.31
2022-10-24T07:39:56.791Z,100405.78
2022-10-24T07:45:18.637Z,100375.72
2022-10-24T07:50:46.008Z,100350.09
2022-10-24T07:56:08.734Z,100342.88
2022-10-24T08:01:30.602Z,100354.88
2022-10-24T08:06:52.699Z,100357.84
2022-10-24T08:12:14.528Z,100356.91
2022-10-24T08:17:36.530Z,100345.88
2022-10-24T08:22:58.415Z,100352.06
2022-10-24T08:28:20.748Z,100342.66
2022-10-24T08:33:43.578Z,100347.66
2022-10-24T08:39:05.648Z,100336.94
2022-10-24T08:44:42.958Z,100329.84
2022-10-24T08:50:32.449Z,100343.41
2022-10-24T08:55:57.271Z,100345.06
2022-10-24T09:01:33.082Z,100342.69
2022-10-24T09:06:55.776Z,100341.16
2022-10-24T09:12:20.674Z,100351.09
2022-10-24T09:17:43.998Z,100351.34
2022-10-24T09:23:06.520Z,100340.34
2022-10-24T09:28:28.462Z,100344.25
2022-10-24T09:33:51.930Z,100327.50
2022-10-24T09:39:30.863Z,100337.00
2022-10-24T09:44:57.486Z,100331.63
2022-10-24T09:50:22.236Z,100314.53
2022-10-24T09:55:45.205Z,100317.50
2022-10-24T10:01:20.477Z,100321.56
2022-10-24T10:06:48.467Z,100324.84
2022-10-24T10:12:27.121Z,100313.31
2022-10-24T10:17:55.157Z,100316.22
2022-10-24T10:23:33.016Z,100311.56
2022-10-24T10:29:25.729Z,100317.50
2022-10-24T10:34:57.756Z,100315.44
2022-10-24T10:40:28.629Z,100308.19
2022-10-24T10:46:12.211Z,100296.19
2022-10-24T10:51:45.798Z,100298.72
2022-10-24T10:57:21.801Z,100312.31
2022-10-24T11:03:07.269Z,100313.22
2022-10-24T11:08:35.123Z,100314.25
2022-10-24T11:14:18.626Z,100308.69
2022-10-24T11:19:49.909Z,100301.75
2022-10-24T11:25:31.462Z,100301.50
2022-10-24T11:31:08.075Z,100302.50
2022-10-24T11:36:45.109Z,100303.50
2022-10-24T11:42:16.376Z,100296.03
2022-10-24T11:48:05.052Z,100283.97
2022-10-24T11:53:29.622Z,100286.31
2022-10-24T11:58:59.557Z,100291.13
2022-10-24T12:04:55.005Z,100285.44
2022-10-24T12:10:25.986Z,100278.81
2022-10-24T12:16:05.962Z,100277.53
2022-10-24T12:21:37.678Z,100272.09
2022-10-24T12:27:03.197Z,100257.66
2022-10-24T12:32:31.192Z,100244.63
2022-10-24T12:37:54.296Z,100240.19
2022-10-24T12:43:48.422Z,100234.13
2022-10-24T12:49:10.158Z,100231.66
2022-10-24T12:54:40.701Z,100229.97
2022-10-24T13:00:21.943Z,100230.78
2022-10-24T13:06:18.946Z,100225.56
2022-10-24T13:12:31.272Z,100217.34
2022-10-24T13:18:06.467Z,100212.22
2022-10-24T13:23:29.135Z,100221.84
2022-10-24T13:28:51.259Z,100218.56
2022-10-24T13:34:17.908Z,100231.94
2022-10-24T13:39:46.703Z,100225.88
2022-10-24T13:45:20.530Z,100221.47
2022-10-24T13:51:08.243Z,100224.34
2022-10-24T13:56:35.403Z,100225.59
2022-10-24T14:02:00.275Z,100209.09
2022-10-24T14:07:27.621Z,100214.38
2022-10-24T14:12:49.565Z,100211.84
2022-10-24T14:18:13.782Z,100204.22
2022-10-24T14:23:38.779Z,100216.88
2022-10-24T14:29:00.691Z,100214.09
2022-10-24T14:34:23.451Z,100207.84
2022-10-24T14:39:45.462Z,100219.38
2022-10-24T14:45:31.442Z,100228.00
2022-10-24T14:50:53.315Z,100228.06
2022-10-24T14:56:24.330Z,100235.41
2022-10-24T15:02:00.796Z,100230.03
2022-10-24T15:07:22.569Z,100236.03
2022-10-24T15:12:56.522Z,100235.25
2022-10-24T15:18:25.700Z,100226.03
2022-10-24T15:23:59.403Z,100223.19
2022-10-24T15:29:23.283Z,100234.19
2022-10-24T15:34:45.449Z,100234.44
2022-10-24T15:40:31.836Z,100237.78
2022-10-24T15:45:53.616Z,100244.69
2022-10-24T15:51:17.377Z,100243.28
2022-10-24T15:56:39.254Z,100244.72
2022-10-24T16:02:01.869Z,100255.13
2022-10-24T16:07:23.767Z,100251.41
2022-10-24T16:12:46.043Z,100254.78
2022-10-24T16:18:09.010Z,100246.53
2022-10-24T16:23:32.406Z,100239.72
2022-10-24T16:28:55.143Z,100241.56
2022-10-24T16:34:17.091Z,100249.75
2022-10-24T16:39:38.952Z,100251.00
2022-10-24T16:45:00.790Z,100257.47
2022-10-24T16:50:26.849Z,100250.22
2022-10-24T16:55:53.511Z,100252.06
2022-10-24T17:01:15.785Z,100252.47
2022-10-24T17:06:37.843Z,100255.50
2022-10-24T17:11:59.833Z,100256.34
2022-10-24T17:17:21.815Z,100262.53
2022-10-24T17:22:45.585Z,100262.94
2022-10-24T17:28:07.548Z,100258.34
2022-10-24T17:33:29.706Z,100258.56
2022-10-24T17:39:30.857Z,100262.47
2022-10-24T17:44:52.831Z,100251.56
2022-10-24T17:50:15.649Z,100259.31
2022-10-24T17:55:52.744Z,100252.53
2022-10-24T18:01:14.610Z,100247.69
2022-10-24T18:06:39.452Z,100253.94
2022-10-24T18:12:05.274Z,100257.59
2022-10-24T18:17:28.019Z,100261.41
2022-10-24T18:22:50.637Z,100253.81
2022-10-24T18:28:12.490Z,100254.09
2022-10-24T18:33:34.380Z,100257.63
2022-10-24T18:38:57.639Z,100261.22
2022-10-24T18:44:25.511Z,100256.63
2022-10-24T18:49:48.397Z,100248.78
2022-10-24T18:55:22.508Z,100233.59
2022-10-24T19:00:45.737Z,100225.63
2022-10-24T19:06:34.598Z,100235.88
2022-10-24T19:11:56.631Z,100228.16
2022-10-24T19:17:19.849Z,100223.66
2022-10-24T19:22:41.786Z,100221.44
2022-10-24T19:28:03.695Z,100216.34
2022-10-24T19:33:25.539Z,100214.72
2022-10-24T19:38:47.400Z,100195.72
2022-10-24T19:44:10.618Z,100197.13
2022-10-24T19:49:32.405Z,100211.94
2022-10-24T19:54:54.213Z,100206.19
2022-10-24T20:00:16.295Z,100201.28
2022-10-24T20:05:38.140Z,100219.28
2022-10-24T20:11:00.089Z,100208.22
2022-10-24T20:16:22.481Z,100208.53
2022-10-24T20:21:44.402Z,100212.09
2022-10-24T20:32:33.022Z,100217.84
2022-10-24T20:37:54.903Z,100214.75
2022-10-24T20:43:17.521Z,100220.78
2022-10-24T20:48:39.434Z,100221.81
2022-10-24T20:54:01.413Z,100226.22
2022-10-24T20:59:23.241Z,100214.03
2022-10-24T21:04:47.031Z,100209.63
2022-10-24T21:10:10.105Z,100206.25
2022-10-24T21:15:31.992Z,100216.50
2022-10-24T21:20:53.853Z,100224.06
2022-10-24T21:26:15.661Z,100223.88
2022-10-24T21:31:37.533Z,100217.28
2022-10-24T21:37:00.466Z,100223.31
2022-10-24T21:42:25.119Z,100226.03
2022-10-24T21:47:46.939Z,100234.44
2022-10-24T21:53:09.654Z,100242.00
2022-10-24T21:58:32.477Z,100240.06
2022-10-24T22:03:55.353Z,100245.44
2022-10-24T22:09:20.540Z,100247.50
2022-10-24T22:14:42.388Z,100244.81
2022-10-24T22:20:04.560Z,100246.16
2022-10-24T22:25:26.392Z,100252.66
2022-10-24T22:30:48.649Z,100251.38
2022-10-24T22:36:16.172Z,100244.41
2022-10-24T22:41:38.429Z,100256.75
2022-10-24T22:47:12.213Z,100271.41
2022-10-24T22:52:34.311Z,100269.59
2022-10-24T22:57:56.373Z,100276.59
2022-10-24T23:03:21.152Z,100269.72
2022-10-24T23:08:44.292Z,100272.16
2022-10-24T23:14:06.638Z,100266.88
2022-10-24T23:19:30.462Z,100271.41
2022-10-24T23:24:57.523Z,100269.81
2022-10-24T23:30:22.465Z,100274.78
2022-10-24T23:35:44.579Z,100268.81
2022-10-24T23:41:10.729Z,100269.50
2022-10-24T23:46:45.054Z,100282.03
2022-10-24T23:52:23.634Z,100281.94
2022-10-24T23:57:45.758Z,100275.06
